createdAt,value
2022-08-25T00:01:58.169Z,9.13
2022-08-25T00:04:25.633Z,7.32
2022-08-25T00:06:58.265Z,6.88
2022-08-25T00:09:27.911Z,9.05
2022-08-25T00:11:55.649Z,8.98
2022-08-25T00:14:25.970Z,11.40
2022-08-25T00:16:53.280Z,9.60
2022-08-25T00:19:27.586Z,8.23
2022-08-25T00:21:55.904Z,6.75
2022-08-25T00:24:23.174Z,8.07
2022-08-25T00:26:52.824Z,11.55
2022-08-25T00:29:20.280Z,5.80
2022-08-25T00:31:47.657Z,7.13
2022-08-25T00:34:18.608Z,9.90
2022-08-25T00:36:47.136Z,5.95
2022-08-25T00:39:14.374Z,7.35
2022-08-25T00:41:43.036Z,7.78
2022-08-25T00:44:12.657Z,9.68
2022-08-25T00:46:44.860Z,9.02
2022-08-25T00:49:22.474Z,8.43
2022-08-25T00:51:59.805Z,9.80
2022-08-25T00:54:34.953Z,8.52
2022-08-25T00:59:30.125Z,9.13
2022-08-25T01:01:58.940Z,11.27
2022-08-25T01:04:26.729Z,8.80
2022-08-25T01:06:55.619Z,5.88
2022-08-25T01:09:22.755Z,8.88
2022-08-25T01:11:49.927Z,10.00
2022-08-25T01:14:19.177Z,10.52
2022-08-25T01:16:46.668Z,9.10
2022-08-25T01:19:18.141Z,8.27
2022-08-25T01:21:48.240Z,10.73
2022-08-25T01:24:24.351Z,8.95
2022-08-25T01:26:52.086Z,8.93
2022-08-25T01:29:22.281Z,8.20
2022-08-25T01:31:51.324Z,8.43
2022-08-25T01:34:19.789Z,12.18
2022-08-25T01:36:47.281Z,6.50
2022-08-25T01:39:15.018Z,6.38
2022-08-25T01:42:11.458Z,9.30
2022-08-25T01:44:42.011Z,7.82
2022-08-25T01:47:09.852Z,10.00
2022-08-25T01:49:36.964Z,9.48
2022-08-25T01:52:12.712Z,10.35
2022-08-25T01:54:39.832Z,9.07
2022-08-25T01:57:07.059Z,10.98
2022-08-25T01:59:34.312Z,14.52
2022-08-25T02:02:01.433Z,10.88
2022-08-25T02:04:32.944Z,9.63
2022-08-25T02:07:01.314Z,10.85
2022-08-25T02:09:28.536Z,8.32
2022-08-25T02:11:56.803Z,11.95
2022-08-25T02:14:24.119Z,9.90
2022-08-25T02:16:52.908Z,7.07
2022-08-25T02:19:21.479Z,9.20
2022-08-25T02:21:49.710Z,9.15
2022-08-25T02:24:17.243Z,9.70
2022-08-25T02:26:44.370Z,9.40
2022-08-25T02:29:11.738Z,11.35
2022-08-25T02:31:39.158Z,12.00
2022-08-25T02:34:06.905Z,11.73
2022-08-25T02:36:34.658Z,9.38
2022-08-25T02:39:02.159Z,10.65
2022-08-25T02:41:33.419Z,11.38
2022-08-25T02:44:02.277Z,11.68
2022-08-25T02:46:29.500Z,8.52
2022-08-25T02:48:56.710Z,13.75
2022-08-25T02:51:25.342Z,12.45
2022-08-25T02:53:52.555Z,9.82
2022-08-25T02:56:20.285Z,10.20
2022-08-25T02:58:47.973Z,12.30
2022-08-25T03:01:15.573Z,10.98
2022-08-25T03:03:45.148Z,8.13
2022-08-25T03:06:14.164Z,11.07
2022-08-25T03:08:42.253Z,8.20
2022-08-25T03:11:10.049Z,9.13
2022-08-25T03:13:37.399Z,12.98
2022-08-25T03:16:06.188Z,14.27
2022-08-25T03:18:40.116Z,11.50
2022-08-25T03:21:07.682Z,11.85
2022-08-25T03:23:34.929Z,10.93
2022-08-25T03:26:20.579Z,8.95
2022-08-25T03:31:14.826Z,15.90
2022-08-25T03:33:45.557Z,13.13
2022-08-25T03:36:12.920Z,10.13
2022-08-25T03:38:40.907Z,10.93
2022-08-25T03:41:19.871Z,11.57
2022-08-25T03:43:47.612Z,10.85
2022-08-25T03:46:22.152Z,12.00
2022-08-25T03:48:49.512Z,14.43
2022-08-25T03:51:26.743Z,10.73
2022-08-25T03:53:54.479Z,10.50
2022-08-25T03:56:21.611Z,7.60
2022-08-25T03:58:48.879Z,15.65
2022-08-25T04:01:16.693Z,11.80
2022-08-25T04:03:46.289Z,10.82
2022-08-25T04:06:14.198Z,18.70
2022-08-25T04:08:41.317Z,16.92
2022-08-25T04:11:15.680Z,11.23
2022-08-25T04:13:43.337Z,10.17
2022-08-25T04:16:21.738Z,13.82
2022-08-25T04:18:49.799Z,14.45
2022-08-25T04:21:17.498Z,12.00
2022-08-25T04:23:45.938Z,16.00
2022-08-25T04:26:16.706Z,16.60
2022-08-25T04:28:43.825Z,16.35
2022-08-25T04:31:12.389Z,15.85
2022-08-25T04:33:40.087Z,17.45
2022-08-25T04:36:12.059Z,22.67
2022-08-25T04:38:41.182Z,16.23
2022-08-25T04:41:10.350Z,13.57
2022-08-25T04:43:38.784Z,16.05
2022-08-25T04:46:31.059Z,16.33
2022-08-25T04:48:59.952Z,17.17
2022-08-25T04:51:31.041Z,17.05
2022-08-25T04:54:01.125Z,15.43
2022-08-25T04:56:28.898Z,17.27
2022-08-25T04:58:56.439Z,21.13
2022-08-25T05:01:25.191Z,19.90
2022-08-25T05:03:55.869Z,9.85
2022-08-25T05:06:23.628Z,13.75
2022-08-25T05:08:51.435Z,17.13
2022-08-25T05:11:19.826Z,15.57
2022-08-25T05:13:52.074Z,13.52
2022-08-25T05:16:20.177Z,16.60
2022-08-25T05:18:47.739Z,12.15
2022-08-25T05:21:17.644Z,14.40
2022-08-25T05:23:46.435Z,15.40
2022-08-25T05:26:20.469Z,13.93
2022-08-25T05:28:50.359Z,16.83
2022-08-25T05:31:18.590Z,12.38
2022-08-25T05:33:45.729Z,15.32
2022-08-25T05:36:14.264Z,14.57
2022-08-25T05:38:41.880Z,10.68
2022-08-25T05:41:18.600Z,11.75
2022-08-25T05:43:48.011Z,11.32
2022-08-25T05:46:16.688Z,12.20
2022-08-25T05:48:44.230Z,12.68
2022-08-25T05:51:12.661Z,13.07
2022-08-25T05:53:42.240Z,16.02
2022-08-25T05:56:10.084Z,13.93
2022-08-25T05:58:37.267Z,16.20
2022-08-25T06:01:23.860Z,18.65
2022-08-25T06:03:54.258Z,15.55
2022-08-25T06:06:23.211Z,21.70
2022-08-25T06:08:50.601Z,20.58
2022-08-25T06:11:18.854Z,19.27
2022-08-25T06:13:46.457Z,16.92
2022-08-25T06:16:13.683Z,17.42
2022-08-25T06:18:41.011Z,24.98
2022-08-25T06:21:10.127Z,15.05
2022-08-25T06:23:37.316Z,17.08
2022-08-25T06:26:04.693Z,22.55
2022-08-25T06:28:31.802Z,21.40
2022-08-25T06:31:00.213Z,19.42
2022-08-25T06:33:27.544Z,23.75
2022-08-25T06:35:58.353Z,19.85
2022-08-25T06:38:25.843Z,19.35
2022-08-25T06:40:53.268Z,17.95
2022-08-25T06:43:21.474Z,14.98
2022-08-25T06:45:48.593Z,20.33
2022-08-25T06:48:16.215Z,17.75
2022-08-25T06:50:44.515Z,18.83
2022-08-25T06:53:12.234Z,18.63
2022-08-25T06:55:39.951Z,21.42
2022-08-25T06:58:07.360Z,22.17
2022-08-25T07:00:38.700Z,16.35
2022-08-25T07:03:07.098Z,23.15
2022-08-25T07:05:43.551Z,19.98
2022-08-25T07:08:11.877Z,20.58
2022-08-25T07:10:39.157Z,21.23
2022-08-25T07:13:06.255Z,15.15
2022-08-25T07:15:38.319Z,20.08
2022-08-25T07:18:06.089Z,20.55
2022-08-25T07:20:36.526Z,21.67
2022-08-25T07:23:03.678Z,19.67
2022-08-25T07:25:30.882Z,20.85
2022-08-25T07:27:59.117Z,24.88
2022-08-25T07:30:26.334Z,19.20
2022-08-25T07:33:04.663Z,23.50
2022-08-25T07:35:37.636Z,23.38
2022-08-25T07:38:06.605Z,24.50
2022-08-25T07:40:38.110Z,23.92
2022-08-25T07:43:10.388Z,22.60
2022-08-25T07:45:49.141Z,25.25
2022-08-25T07:48:19.601Z,22.40
2022-08-25T07:50:47.763Z,25.27
2022-08-25T07:53:16.824Z,23.77
2022-08-25T07:55:44.984Z,22.90
2022-08-25T07:58:12.617Z,25.95
2022-08-25T08:00:42.422Z,28.73
2022-08-25T08:03:12.863Z,25.23
2022-08-25T08:05:51.164Z,24.73
2022-08-25T08:08:18.940Z,20.40
2022-08-25T08:11:05.010Z,21.92
2022-08-25T08:13:37.892Z,23.15
2022-08-25T08:16:11.833Z,20.77
2022-08-25T08:18:42.502Z,24.05
2022-08-25T08:21:20.099Z,19.73
2022-08-25T08:23:48.485Z,19.42
2022-08-25T08:26:17.074Z,22.05
2022-08-25T08:28:45.290Z,20.13
2022-08-25T08:31:21.189Z,18.55
2022-08-25T08:33:50.070Z,17.13
2022-08-25T08:36:18.488Z,13.70
2022-08-25T08:38:46.347Z,18.63
2022-08-25T08:44:46.974Z,18.60
2022-08-25T08:47:38.376Z,15.10
2022-08-25T08:50:35.073Z,17.55
2022-08-25T08:53:07.531Z,14.20
2022-08-25T08:56:01.403Z,10.32
2022-08-25T08:58:50.724Z,11.13
2022-08-25T09:01:41.964Z,13.00
2022-08-25T09:04:12.837Z,18.15
2022-08-25T09:06:45.304Z,18.30
2022-08-25T09:09:15.824Z,13.80
2022-08-25T09:14:54.063Z,15.88
2022-08-25T09:17:26.539Z,12.82
2022-08-25T09:20:18.823Z,8.60
2022-08-25T09:22:56.245Z,8.05
2022-08-25T09:25:52.585Z,9.15
2022-08-25T09:28:26.195Z,11.75
2022-08-25T09:31:05.869Z,14.68
2022-08-25T09:33:35.396Z,13.75
2022-08-25T09:36:04.565Z,9.23
2022-08-25T09:38:33.695Z,11.50
2022-08-25T09:41:01.921Z,9.88
2022-08-25T09:43:29.466Z,10.57
2022-08-25T09:46:03.736Z,10.45
2022-08-25T09:48:43.608Z,8.13
2022-08-25T09:51:18.766Z,10.73
2022-08-25T09:54:15.250Z,12.45
2022-08-25T09:56:51.523Z,10.02
2022-08-25T09:59:36.220Z,8.05
2022-08-25T10:02:15.071Z,12.10
2022-08-25T10:04:43.065Z,15.27
2022-08-25T10:07:25.452Z,8.95
2022-08-25T10:09:59.790Z,10.00
2022-08-25T10:12:36.275Z,15.05
2022-08-25T10:15:29.449Z,8.43
2022-08-25T10:18:20.527Z,10.65
2022-08-25T10:21:14.740Z,16.40
2022-08-25T10:23:48.716Z,11.68
2022-08-25T10:26:47.868Z,12.02
2022-08-25T10:29:26.518Z,12.85
2022-08-25T10:31:57.996Z,12.70
2022-08-25T10:34:35.822Z,9.95
2022-08-25T10:37:27.265Z,8.25
2022-08-25T10:40:21.826Z,12.65
2022-08-25T10:42:57.890Z,9.93
2022-08-25T10:45:45.690Z,11.38
2022-08-25T10:48:34.547Z,17.15
2022-08-25T10:51:29.631Z,13.00
2022-08-25T10:54:18.511Z,7.00
2022-08-25T10:57:23.125Z,14.65
2022-08-25T11:00:11.349Z,8.57
2022-08-25T11:02:45.370Z,13.40
2022-08-25T11:05:24.631Z,15.07
2022-08-25T11:07:58.151Z,11.18
2022-08-25T11:10:38.416Z,8.10
2022-08-25T11:13:15.548Z,12.70
2022-08-25T11:16:16.139Z,9.25
2022-08-25T11:19:07.475Z,10.48
2022-08-25T11:21:54.045Z,13.75
2022-08-25T11:24:43.155Z,11.73
2022-08-25T11:27:17.500Z,10.77
2022-08-25T11:29:53.319Z,13.30
2022-08-25T11:32:20.882Z,12.98
2022-08-25T11:34:48.055Z,7.95
2022-08-25T11:37:23.050Z,9.27
2022-08-25T11:40:01.042Z,11.82
2022-08-25T11:42:43.115Z,9.93
2022-08-25T11:45:22.288Z,12.52
2022-08-25T11:48:08.227Z,11.13
2022-08-25T11:50:54.226Z,12.45
2022-08-25T11:53:36.122Z,10.25
2022-08-25T11:56:31.654Z,14.45
2022-08-25T11:58:59.859Z,11.07
2022-08-25T12:01:43.131Z,10.02
2022-08-25T12:04:14.844Z,9.32
2022-08-25T12:07:03.566Z,11.27
2022-08-25T12:09:31.761Z,8.88
2022-08-25T12:11:59.222Z,9.25
2022-08-25T12:14:28.264Z,10.43
2022-08-25T12:16:55.618Z,19.08
2022-08-25T12:19:35.257Z,13.23
2022-08-25T12:22:03.565Z,10.38
2022-08-25T12:24:47.703Z,11.32
2022-08-25T12:27:36.715Z,10.60
2022-08-25T12:30:27.497Z,14.52
2022-08-25T12:33:19.213Z,16.52
2022-08-25T12:36:05.202Z,10.23
2022-08-25T12:38:51.932Z,10.68
2022-08-25T12:41:22.365Z,12.82
2022-08-25T12:43:54.420Z,8.68
2022-08-25T12:46:21.800Z,10.60
2022-08-25T12:49:30.186Z,9.60
2022-08-25T12:52:05.625Z,7.40
2022-08-25T12:54:51.448Z,8.95
2022-08-25T12:57:41.947Z,7.97
2022-08-25T13:00:18.402Z,13.23
2022-08-25T13:03:07.823Z,13.23
2022-08-25T13:05:49.662Z,6.10
2022-08-25T13:08:33.974Z,14.20
2022-08-25T13:11:20.413Z,9.93
2022-08-25T13:13:57.646Z,12.23
2022-08-25T13:16:30.137Z,7.57
2022-08-25T13:18:59.536Z,9.50
2022-08-25T13:21:37.423Z,16.80
2022-08-25T13:24:17.469Z,13.02
2022-08-25T13:26:48.087Z,10.95
2022-08-25T13:29:20.698Z,10.32
2022-08-25T13:32:01.028Z,11.43
2022-08-25T13:34:35.550Z,17.33
2022-08-25T13:37:30.190Z,10.02
2022-08-25T13:40:33.270Z,10.18
2022-08-25T13:43:07.782Z,13.88
2022-08-25T13:45:47.689Z,14.52
2022-08-25T13:48:33.513Z,8.90
2022-08-25T13:51:21.445Z,10.65
2022-08-25T13:54:00.418Z,10.15
2022-08-25T13:56:38.042Z,10.88
2022-08-25T13:59:23.261Z,14.90
2022-08-25T14:01:51.418Z,7.10
2022-08-25T14:04:21.320Z,12.63
2022-08-25T14:06:49.104Z,17.83
2022-08-25T14:09:18.361Z,9.35
2022-08-25T14:11:58.476Z,9.98
2022-08-25T14:14:25.544Z,10.88
2022-08-25T14:16:58.918Z,11.35
2022-08-25T14:19:26.525Z,11.50
2022-08-25T14:21:56.683Z,9.25
2022-08-25T14:24:24.325Z,14.70
2022-08-25T14:26:54.477Z,13.15
2022-08-25T14:29:22.767Z,10.95
2022-08-25T14:31:50.916Z,8.70
2022-08-25T14:34:28.659Z,13.77
2022-08-25T14:36:56.862Z,13.90
2022-08-25T14:39:23.944Z,8.18
2022-08-25T14:41:53.212Z,16.13
2022-08-25T14:44:21.526Z,13.23
2022-08-25T14:46:54.696Z,13.07
2022-08-25T14:49:29.701Z,12.00
2022-08-25T14:51:57.848Z,13.55
2022-08-25T14:54:26.695Z,13.05
2022-08-25T14:56:53.895Z,13.15
2022-08-25T14:59:21.417Z,11.73
2022-08-25T15:01:50.143Z,11.23
2022-08-25T15:04:20.486Z,13.57
2022-08-25T15:06:51.727Z,10.68
2022-08-25T15:09:18.970Z,11.00
2022-08-25T15:11:50.581Z,7.50
2022-08-25T15:14:28.929Z,11.10
2022-08-25T15:17:01.946Z,8.95
2022-08-25T15:19:29.250Z,8.90
2022-08-25T15:21:57.721Z,11.77
2022-08-25T15:24:27.446Z,11.07
2022-08-25T15:27:00.164Z,14.70
2022-08-25T15:29:30.187Z,12.07
2022-08-25T15:31:59.114Z,14.43
2022-08-25T15:34:26.840Z,10.75
2022-08-25T15:36:57.847Z,10.55
2022-08-25T15:39:24.982Z,13.75
2022-08-25T15:41:52.368Z,12.80
2022-08-25T15:48:44.444Z,9.82
2022-08-25T15:51:12.261Z,16.75
2022-08-25T15:53:39.373Z,11.35
2022-08-25T15:56:07.072Z,11.57
2022-08-25T15:58:35.657Z,14.70
2022-08-25T16:01:02.923Z,17.08
2022-08-25T16:03:31.406Z,11.77
2022-08-25T16:05:58.702Z,13.73
2022-08-25T16:08:26.200Z,12.77
2022-08-25T16:10:53.424Z,10.95
2022-08-25T16:13:20.621Z,13.65
2022-08-25T16:15:52.918Z,14.85
2022-08-25T16:18:23.056Z,14.30
2022-08-25T16:20:50.872Z,14.00
2022-08-25T16:23:19.100Z,9.70
2022-08-25T16:25:47.245Z,16.42
2022-08-25T16:28:15.645Z,16.23
2022-08-25T16:30:52.651Z,14.10
2022-08-25T16:33:20.421Z,17.42
2022-08-25T16:35:49.269Z,11.57
2022-08-25T16:38:16.646Z,16.85
2022-08-25T16:40:43.802Z,11.98
2022-08-25T16:43:11.963Z,14.35
2022-08-25T16:45:40.154Z,16.83
2022-08-25T16:48:07.529Z,13.20
2022-08-25T16:50:35.191Z,18.88
2022-08-25T16:53:23.827Z,16.30
2022-08-25T16:56:04.438Z,14.68
2022-08-25T16:58:33.266Z,22.02
2022-08-25T17:01:07.246Z,23.27
2022-08-25T17:03:37.797Z,18.48
2022-08-25T17:06:06.296Z,23.05
2022-08-25T17:08:36.859Z,21.55
2022-08-25T17:11:12.440Z,15.40
2022-08-25T17:13:44.604Z,22.33
2022-08-25T17:16:13.447Z,18.88
2022-08-25T17:18:42.639Z,21.88
2022-08-25T17:21:19.484Z,19.33
2022-08-25T17:23:51.498Z,25.52
2022-08-25T17:26:19.802Z,20.00
2022-08-25T17:28:54.701Z,18.52
2022-08-25T17:31:23.893Z,24.13
2022-08-25T17:33:52.354Z,21.00
2022-08-25T17:36:19.973Z,15.35
2022-08-25T17:38:54.571Z,26.15
2022-08-25T17:41:21.802Z,18.35
2022-08-25T17:43:48.933Z,21.50
2022-08-25T17:46:16.249Z,19.77
2022-08-25T17:48:44.822Z,21.33
2022-08-25T17:51:12.909Z,16.17
2022-08-25T17:53:43.742Z,22.08
2022-08-25T17:56:14.028Z,29.33
2022-08-25T17:58:42.000Z,16.08
2022-08-25T18:01:16.615Z,19.27
2022-08-25T18:03:44.203Z,14.48
2022-08-25T18:06:15.185Z,18.73
2022-08-25T18:08:44.373Z,14.98
2022-08-25T18:11:20.693Z,23.40
2022-08-25T18:13:48.080Z,13.20
2022-08-25T18:16:18.616Z,19.85
2022-08-25T18:18:46.457Z,25.73
2022-08-25T18:21:16.477Z,22.10
2022-08-25T18:23:44.170Z,17.10
2022-08-25T18:26:12.941Z,18.35
2022-08-25T18:28:40.661Z,18.63
2022-08-25T18:31:13.270Z,20.23
2022-08-25T18:33:44.352Z,14.57
2022-08-25T18:36:12.871Z,20.25
2022-08-25T18:39:13.627Z,43.05
2022-08-25T18:41:42.465Z,37.63
2022-08-25T18:44:10.703Z,51.35
2022-08-25T18:46:39.911Z,38.83
2022-08-25T18:49:07.178Z,22.38
2022-08-25T18:51:36.422Z,23.42
2022-08-25T18:54:04.353Z,15.68
2022-08-25T18:56:31.575Z,17.42
2022-08-25T18:59:00.104Z,22.17
2022-08-25T19:01:27.323Z,14.23
2022-08-25T19:03:56.528Z,16.65
2022-08-25T19:06:23.927Z,12.57
2022-08-25T19:08:51.134Z,20.35
2022-08-25T19:11:22.416Z,18.85
2022-08-25T19:13:50.551Z,18.17
2022-08-25T19:16:21.577Z,17.55
2022-08-25T19:18:49.085Z,19.65
2022-08-25T19:21:22.501Z,23.00
2022-08-25T19:23:51.316Z,17.10
2022-08-25T19:26:20.256Z,18.65
2022-08-25T19:28:49.493Z,22.33
2022-08-25T19:31:24.545Z,21.45
2022-08-25T19:33:53.003Z,12.18
2022-08-25T19:36:23.773Z,18.48
2022-08-25T19:38:58.509Z,18.10
2022-08-25T19:41:27.774Z,15.73
2022-08-25T19:43:57.445Z,21.23
2022-08-25T19:46:33.353Z,23.48
2022-08-25T19:49:16.328Z,23.13
2022-08-25T19:51:47.560Z,18.52
2022-08-25T19:54:25.192Z,16.40
2022-08-25T19:56:54.962Z,15.50
2022-08-25T19:59:36.654Z,13.35
2022-08-25T20:02:15.465Z,19.65
2022-08-25T20:04:49.778Z,21.00
2022-08-25T20:07:20.156Z,16.40
2022-08-25T20:09:48.212Z,14.23
2022-08-25T20:12:16.717Z,16.17
2022-08-25T20:14:45.438Z,21.33
2022-08-25T20:17:23.131Z,20.02
2022-08-25T20:19:53.558Z,20.17
2022-08-25T20:22:25.403Z,18.50
2022-08-25T20:24:57.888Z,20.73
2022-08-25T20:27:33.155Z,25.05
2022-08-25T20:32:32.332Z,25.67
2022-08-25T20:35:00.372Z,21.20
2022-08-25T20:37:27.601Z,20.92
2022-08-25T20:39:55.100Z,14.80
2022-08-25T20:42:22.392Z,14.02
2022-08-25T20:44:49.562Z,18.67
2022-08-25T20:47:20.520Z,18.95
2022-08-25T20:49:48.930Z,16.80
2022-08-25T20:52:19.196Z,22.08
2022-08-25T20:54:49.368Z,19.23
2022-08-25T20:57:24.535Z,24.73
2022-08-25T20:59:54.442Z,13.10
2022-08-25T21:02:23.141Z,14.48
2022-08-25T21:04:50.722Z,21.23
2022-08-25T21:07:18.620Z,15.25
2022-08-25T21:09:46.295Z,19.05
2022-08-25T21:12:13.581Z,20.17
2022-08-25T21:14:41.765Z,16.50
2022-08-25T21:17:12.685Z,17.00
2022-08-25T21:19:41.894Z,17.38
2022-08-25T21:22:10.856Z,14.88
2022-08-25T21:24:38.574Z,16.33
2022-08-25T21:27:06.289Z,18.60
2022-08-25T21:29:33.652Z,17.92
2022-08-25T21:32:00.918Z,25.55
2022-08-25T21:34:29.132Z,16.15
2022-08-25T21:36:58.309Z,15.65
2022-08-25T21:39:28.112Z,20.30
2022-08-25T21:41:56.523Z,15.23
2022-08-25T21:44:23.871Z,14.60
2022-08-25T21:46:54.093Z,17.45
2022-08-25T21:49:22.558Z,18.13
2022-08-25T21:52:00.957Z,12.23
2022-08-25T21:54:28.977Z,16.13
2022-08-25T21:57:04.575Z,18.58
2022-08-25T21:59:33.986Z,12.45
2022-08-25T22:02:06.051Z,13.10
2022-08-25T22:04:33.899Z,15.77
2022-08-25T22:07:02.433Z,12.48
2022-08-25T22:09:30.424Z,18.40
2022-08-25T22:11:58.711Z,20.33
2022-08-25T22:14:26.604Z,15.52
2022-08-25T22:16:54.705Z,17.67
2022-08-25T22:19:22.817Z,13.10
2022-08-25T22:21:51.472Z,13.65
2022-08-25T22:24:19.227Z,19.48
2022-08-25T22:26:47.772Z,14.55
2022-08-25T22:29:25.320Z,13.90
2022-08-25T22:32:02.030Z,14.38
2022-08-25T22:34:34.223Z,14.60
2022-08-25T22:37:02.073Z,13.48
2022-08-25T22:39:31.353Z,11.38
2022-08-25T22:41:59.770Z,15.98
2022-08-25T22:44:26.942Z,14.70
2022-08-25T22:46:54.146Z,12.63
2022-08-25T22:49:21.748Z,16.20
2022-08-25T22:51:49.095Z,19.38
2022-08-25T22:54:16.368Z,17.90
2022-08-25T22:56:43.652Z,14.65
2022-08-25T22:59:13.023Z,16.25
2022-08-25T23:01:41.296Z,17.52
2022-08-25T23:04:08.900Z,13.02
2022-08-25T23:06:38.229Z,14.27
2022-08-25T23:09:07.604Z,16.83
2022-08-25T23:11:35.876Z,13.98
2022-08-25T23:14:09.958Z,12.10
2022-08-25T23:16:41.971Z,14.85
2022-08-25T23:19:10.664Z,11.55
2022-08-25T23:21:56.968Z,10.20
2022-08-25T23:46:08.241Z,10.90
2022-08-25T23:48:56.192Z,15.00
2022-08-25T23:51:33.456Z,15.48
2022-08-25T23:54:05.791Z,15.48
2022-08-25T23:56:34.682Z,16.25
2022-08-25T23:59:03.471Z,16.88
